Kirkland, WA (98034)

1:47 PM PST on January 26, 2015 (GMT -0800)
Norway Vista | Change Station
CLOSE
Current Station
Personal Weather Station
Location: Bothell, WA
Elevation: 213 ft
Nearby Weather Stations

Elev 213 ft 47.73 °N, 122.20 °W | Updated 1 minute ago

Partly Cloudy
Partly Cloudy
58.3 °F
Feels Like 58.3 °F
N
0.0
Wind Variable Wind from North
Gusts 0.0 mph

Today
High -- | Low -- °F
--% Chance of Precip.
Yesterday
High -- | Low -- °F
Precip. -- in
7:43 AM 5:00 PM
Waxing Crescent, 47% visible
Pressure 29.94 in
Visibility 10.0 miles
Clouds Few 25000 ft
Dew Point 43 °F
Humidity 57%
Rainfall -999.00 in
Snow Depth Not available.
UV 2 out of 12
Pollen 4.70 out of 12
Air Quality Not available.
Flu Activity Not available.
METAR KBFI 262053Z 15008KT 10SM FEW250 17/08 A2994 RMK AO2 SLP138 T01670083 58007

More Conditions Fewer Conditions

Pressure 29.94 in
Visibility 10.0 miles
Clouds Few 25000 ft
Dew Point 43 °F
Humidity 57%
Rainfall -999.00 in
Snow Depth Not available.
UV 2 out of 12
Pollen 4.70 out of 12
Air Quality Not available.
Flu Activity Not available.
METAR KBFI 262053Z 15008KT 10SM FEW250 17/08 A2994 RMK AO2 SLP138 T01670083 58007

More Conditions Fewer Conditions

10-Day Weather Forecast

Almanac

Astronomy

Jan. 26, 2015 Rise Set
Actual Time
Civil Twilight
Nautical Twilight
Astronomical Twilight
Moon
Length of Visible Light
Length of Day
Tomorrow will be .
, % of the Moon is Illuminated

Today's Extremes

State Highs State Lows

Community

WunderPhotos

Upload Photos

1,790,370 photos uploaded!

WunderBlogs® & News

Nearby

Air Quality

  Air Quality AQ Index Pollutant
Not available.

Snow Depth

Station Depth Elevation

Earthquake Activity

City Distance Mag. Time & Date
Minimum magnitude displayed is 2.5.

Coastal Water Temperatures

Place Temperature

Nearby Weather Stations